Portada
METAR-TAF:

METAR-TAF

Aeroports :

Topeka, Kansas, Estats Units d'Amèrica

latitud: 38-56-29N, longitud: 095-39-02W, altitud: 329 m

Observació

L'informe es va fer fa 1 hora i 4 minuts, a les 03:53 UTC
Vent 6 kt del Est/Sud-Est
Temperatura 25°C
Humitat 89%
Pressió 1015 hPa
Visibilitat: 11.3 km
Escasses núvols a una alçada de 6000 ft

METAR: KFOE 050353Z AUTO 11006KT 7SM FEW060 25/23 A2997 RMK AO2 SLP137 T02500228

Hora: 23:57 (04:57 UTC)

Pronòstic

L'informe es va fer fa 5 hores i 37 minuts, a les 23:20 UTC
Pronòstic vàlid del 05 a les 00 UTC al 05 a les 24 UTC
Vent 3 kt del Est/Nord-Est
Visibilitat: 10 km
Núvols disperses a una alçada de 6000 ft
A partir de les 05 a les 1600 UTC
Vent 7 kt del Est
Visibilitat: 10 km
Cel ennuvolat a una alçada de 4000 ft

TAF: KFOE 042320Z 0500/0524 06003KT P6SM SCT060 FM051600 10007KT P6SM BKN040

Observacions i pronòstics meteorològics de més de 4000 aeroports (METAR i TAF).

Les estacions disponibles són els punts grocs i vermells al mapa.

Posi el ratolí al punt desitjat per veure el nom de l'estació.

Feu clic per veure les observacions i els pronòstics meteorològics.

Per canviar el mapa: feu clic els botons verds amb una creu de color negre per apropar; al botó verd amb un guió per allunyar la imatge; o en les fletxes verdes per a mapes adjacents.


METAR-TAF: